Latest Weather Observations for Falls Creek

IDV60801

Issued at 12:32 pm EST Thursday 24 August 2017 (issued every 30 minutes, with the page automatically refreshed every 10 minutes)

About weather observations | Map of weather stations | Latest weather observations for VIC | Other Formats
Station Details ID: 083084 Name: FALLS CREEK Lat: -36.87 Lon: 147.28 Height: 1765.0 m
Data from the previous 72 hours. | See also: Recent months at Falls Creek
Date/Time
EST
Temp
°C
App
Temp
°C
Dew
Point
°C
Rel
Hum
%
Delta-T
°C
Wind Press
QNH
hPa
Press
MSL
hPa
Rain since
9am
mm
Dir  Spd
km/h
Gust
km/h
Spd
kts
Gust
kts
24/12:30pm -2.0 - -2.8 94 0.2 - - - - - 1017.7 1020.0 0.0
24/12:00pm -2.4 - -3.4 93 0.2 - - - - - 1017.9 1020.2 0.0
24/11:30am -3.0 - -3.8 94 0.1 - - - - - 1018.0 1020.3 0.0
24/11:00am -3.3 - -4.1 94 0.1 - - - - - 1018.1 1020.4 0.0
24/10:30am -3.8 - -4.6 94 0.1 - - - - - 1018.0 1020.3 0.0
24/10:00am -4.3 - -5.1 94 0.1 - - - - - 1017.7 1020.0 0.0
24/09:30am -4.5 - -5.3 94 0.1 - - - - - 1017.5 1019.8 0.0
24/09:00am -4.5 - -5.3 94 0.1 - - - - - 1017.1 1019.4 0.4
24/08:30am -4.0 - -4.7 95 0.1 - - - - - 1017.0 1019.3 0.4
24/08:00am -4.3 - -5.1 94 0.1 - - - - - 1016.8 1019.0 0.4
24/07:30am -4.4 - -5.2 94 0.1 - - - - - 1016.4 1018.7 0.4
24/07:00am -3.8 - -4.5 95 0.1 - - - - - 1016.2 1018.4 0.4
24/06:30am -3.7 - -4.4 95 0.1 - - - - - 1015.9 1018.2 0.4
24/06:00am -3.4 - -4.1 95 0.1 - - - - - 1015.8 1018.0 0.4
24/05:30am -3.7 - -4.4 95 0.1 - - - - - 1015.7 1017.9 0.4
24/05:00am -3.5 - -4.2 95 0.1 - - - - - 1015.6 1017.8 0.4
24/04:30am -3.5 - -4.2 95 0.1 - - - - - 1015.6 1017.8 0.4
24/04:00am -3.0 - -3.5 96 0.0 - - - - - 1015.4 1017.5 0.4
24/03:30am -2.6 - -3.1 96 0.1 - - - - - 1015.4 1017.5 0.4
24/03:00am -2.2 - -2.6 97 0.0 - - - - - 1015.4 1017.5 0.4
24/02:30am -2.2 - -2.6 97 0.0 - - - - - 1015.6 1017.8 0.4
24/02:00am -1.8 - -2.2 97 0.1 - - - - - 1015.6 1017.8 0.4
24/01:30am -1.6 - -1.9 98 0.0 - - - - - 1015.6 1017.8 0.4
24/01:00am -1.2 - -1.5 98 0.1 - - - - - 1015.6 1017.8 0.4
24/12:30am -0.9 - -1.2 98 0.1 - - - - - 1015.9 1018.2 0.4
24/12:00am -0.9 - -1.2 98 0.1 - - - - - 1015.8 1018.0 0.4
 
Date/Time
EST
Temp
°C
App
Temp
°C
Dew
Point
°C
Rel
Hum
%
Delta-T
°C
Wind Press
QNH
hPa
Press
MSL
hPa
Rain since
9am
mm
Dir  Spd
km/h
Gust
km/h
Spd
kts
Gust
kts
23/11:30pm -1.0 - -1.1 99 0.0 - - - - - 1016.1 1018.3 0.4
23/11:00pm -0.9 - -1.0 99 0.0 - - - - - 1015.8 1018.0 0.2
23/10:30pm -0.7 - -0.8 99 0.0 - - - - - 1015.6 1017.8 0.0
23/10:00pm -0.5 - -0.6 99 0.0 - - - - - 1015.7 1017.9 0.0
23/09:30pm -0.6 - -0.7 99 0.0 - - - - - 1015.8 1018.0 0.0
23/09:00pm -0.5 - -0.6 99 0.0 - - - - - 1016.2 1018.4 0.0
23/08:30pm -0.7 - -0.8 99 0.0 - - - - - 1016.1 1018.3 0.0
23/08:00pm -0.7 - -0.8 99 0.0 - - - - - 1016.2 1018.4 0.0
23/07:30pm -0.6 - -0.7 99 0.0 - - - - - 1016.1 1018.3 0.0
23/07:00pm -0.6 - -0.7 99 0.0 - - - - - 1015.9 1018.2 0.0
23/06:30pm -0.7 - -0.8 99 0.0 - - - - - 1015.8 1018.0 0.0
23/06:00pm -0.7 - -0.8 99 0.0 - - - - - 1015.8 1018.0 0.0
23/05:30pm -0.6 - -0.7 99 0.0 - - - - - 1015.9 1018.2 0.0
23/05:00pm -0.5 - -0.6 99 0.0 - - - - - 1015.8 1018.0 0.0
23/04:30pm -0.7 - -1.0 98 0.1 - - - - - 1015.8 1018.0 0.0
23/04:00pm -0.6 - -0.9 98 0.1 - - - - - 1015.8 1018.0 0.0
23/03:30pm -0.5 - -0.8 98 0.1 - - - - - 1015.8 1018.0 0.0
23/03:00pm -0.7 - -1.1 97 0.1 - - - - - 1015.7 1017.9 0.0
23/02:30pm -0.8 - -1.2 97 0.1 - - - - - 1015.5 1017.7 0.0
23/02:00pm -0.4 - -0.7 98 0.1 - - - - - 1015.6 1017.8 0.0
23/01:30pm -0.1 - -0.5 97 0.2 - - - - - 1015.6 1017.8 0.0
23/01:00pm -0.3 - -0.9 96 0.2 - - - - - 1015.8 1018.0 0.0
23/12:30pm 0.0 - -0.6 96 0.2 - - - - - 1016.2 1018.4 0.0
23/12:00pm -0.2 - -1.0 94 0.3 - - - - - 1016.8 1019.0 0.0
23/11:30am -0.3 - -1.7 90 0.5 - - - - - 1017.3 1019.5 0.0
23/11:00am -0.5 - -1.9 90 0.5 - - - - - 1017.5 1019.8 0.0
23/10:30am -0.7 - -2.0 91 0.5 - - - - - 1017.5 1019.8 0.0
23/10:00am -1.0 - -1.7 95 0.2 - - - - - 1017.4 1019.7 0.0
23/09:30am -1.0 - -1.6 96 0.2 - - - - - 1017.4 1019.7 0.0
23/09:00am -1.0 - -1.6 96 0.2 - - - - - 1017.5 1019.8 0.0
23/08:30am -1.3 - -1.9 96 0.2 - - - - - 1017.5 1019.8 0.0
23/08:00am -1.4 - -1.8 97 0.1 - - - - - 1017.1 1019.4 0.0
23/07:30am -1.5 - -2.1 96 0.2 - - - - - 1017.1 1019.4 0.0
23/07:00am -1.5 - -2.1 96 0.2 - - - - - 1016.9 1019.2 0.0
23/06:30am -1.3 - -1.9 96 0.2 - - - - - 1016.8 1019.0 0.0
23/06:00am -1.3 - -1.9 96 0.2 - - - - - 1016.9 1019.2 0.0
23/05:30am -1.2 - -1.8 96 0.2 - - - - - 1016.9 1019.2 0.0
23/05:00am -1.2 - -1.8 96 0.2 - - - - - 1016.9 1019.2 0.0
23/04:30am -1.2 - -1.8 96 0.2 - - - - - 1017.1 1019.4 0.0
23/04:00am -1.2 - -1.8 96 0.2 - - - - - 1017.0 1019.3 0.0
23/03:30am -1.1 - -1.7 96 0.2 - - - - - 1017.1 1019.4 0.0
23/03:00am -1.2 - -2.0 94 0.2 - - - - - 1017.4 1019.7 0.0
23/02:30am -1.3 - -2.3 93 0.3 - - - - - 1017.6 1019.9 0.0
23/02:00am -1.1 - -1.9 94 0.3 - - - - - 1017.7 1020.0 0.0
23/01:30am -0.9 - -1.5 96 0.2 - - - - - 1018.1 1020.4 0.0
23/01:00am -0.9 - -1.2 98 0.1 - - - - - 1018.2 1020.5 0.0
23/12:30am -0.9 - -1.0 99 0.0 - - - - - 1018.1 1020.4 0.0
23/12:00am -0.7 - -0.8 99 0.0 - - - - - 1018.3 1020.7 0.0
 
Date/Time
EST
Temp
°C
App
Temp
°C
Dew
Point
°C
Rel
Hum
%
Delta-T
°C
Wind Press
QNH
hPa
Press
MSL
hPa
Rain since
9am
mm
Dir  Spd
km/h
Gust
km/h
Spd
kts
Gust
kts
22/11:30pm -0.7 - -0.8 99 0.0 - - - - - 1018.4 1020.8 0.0
22/11:00pm -0.5 - -0.6 99 0.0 - - - - - 1018.6 1020.9 0.0
22/10:30pm -0.4 - -0.5 99 0.0 - - - - - 1019.0 1021.4 0.0
22/10:00pm -0.4 - -0.5 99 0.0 - - - - - 1019.0 1021.4 0.0
22/09:30pm -0.4 - -0.5 99 0.0 - - - - - 1019.2 1021.5 0.0
22/09:00pm -0.3 - -0.4 99 0.0 - - - - - 1019.2 1021.5 0.0
22/08:30pm -0.2 - -0.5 98 0.1 - - - - - 1019.0 1021.4 0.0
22/08:00pm -0.1 - -0.4 98 0.1 - - - - - 1018.8 1021.1 0.0
22/07:30pm -0.2 - -0.5 98 0.1 - - - - - 1018.7 1021.0 0.0
22/07:00pm -0.2 - -0.6 97 0.1 - - - - - 1018.4 1020.8 0.0
22/06:30pm -0.3 - -1.1 94 0.3 - - - - - 1018.7 1021.0 0.0
22/06:00pm 0.0 - -1.0 93 0.4 - - - - - 1018.6 1020.9 0.0
22/05:30pm 0.2 - -0.8 93 0.4 - - - - - 1018.4 1020.8 0.0
22/05:00pm 0.8 - -0.1 94 0.4 - - - - - 1018.4 1020.8 0.0
22/04:30pm 1.2 - 0.0 92 0.5 - - - - - 1018.4 1020.8 0.0
22/04:00pm 1.4 - -0.1 90 0.6 - - - - - 1018.2 1020.5 0.0
22/03:30pm 1.8 - -0.1 87 0.8 - - - - - 1018.0 1020.3 0.0
22/03:00pm 2.6 - 0.0 83 1.1 - - - - - 1017.4 1019.7 0.0
22/02:30pm 2.8 - -0.3 80 1.3 - - - - - 1017.3 1019.5 0.0
22/02:00pm 2.8 - -0.5 79 1.4 - - - - - 1017.3 1019.5 0.0
22/01:30pm 1.9 - -0.7 83 1.1 - - - - - 1017.4 1019.7 0.0
22/01:00pm 2.5 - -0.8 79 1.4 - - - - - 1017.5 1019.8 0.0
22/12:30pm 2.6 - -0.2 82 1.2 - - - - - 1017.9 1020.2 0.0
22/12:00pm 2.6 - -0.3 81 1.2 - - - - - 1018.0 1020.3 0.0
22/11:30am 1.9 - -0.8 82 1.1 - - - - - 1018.2 1020.5 0.0
22/11:00am 0.8 - -1.9 82 1.1 - - - - - 1018.2 1020.5 0.0
22/10:30am 0.8 - -2.2 80 1.2 - - - - - 1018.2 1020.5 0.0
22/10:00am 0.6 - -2.4 80 1.2 - - - - - 1018.0 1020.3 0.0
22/09:30am 0.9 - -1.8 82 1.1 - - - - - 1018.0 1020.3 0.0
22/09:00am -0.3 - -3.0 82 1.0 - - - - - 1017.7 1020.0 0.0
22/08:30am -1.1 - -4.3 79 1.1 - - - - - 1017.4 1019.7 0.0
22/08:00am -1.3 - -4.3 80 1.0 - - - - - 1017.0 1019.3 0.0
22/07:30am -1.7 - -4.2 83 0.8 - - - - - 1016.8 1019.0 0.0
22/07:00am -2.0 - -4.5 83 0.8 - - - - - 1016.5 1018.8 0.0
22/06:30am -2.3 - -4.8 83 0.8 - - - - - 1016.3 1018.5 0.0
22/06:00am -2.8 - -4.8 86 0.6 - - - - - 1015.9 1018.2 0.0
22/05:30am -2.7 - -5.0 84 0.7 - - - - - 1015.7 1017.9 0.0
22/05:00am -2.5 - -4.8 84 0.7 - - - - - 1015.6 1017.8 0.0
22/04:30am -2.7 - -4.6 87 0.5 - - - - - 1015.4 1017.5 0.0
22/04:00am -2.8 - -4.5 88 0.5 - - - - - 1015.0 1017.2 0.0
22/03:30am -2.8 - -4.7 87 0.5 - - - - - 1014.9 1017.1 0.0
22/03:00am -2.9 - -4.5 89 0.4 - - - - - 1014.9 1017.1 0.0
22/02:30am -2.5 - -4.4 87 0.6 - - - - - 1014.8 1016.9 0.0
22/02:00am -2.9 - -4.0 92 0.3 - - - - - 1015.1 1017.3 0.0
22/01:30am -2.7 - -3.8 92 0.3 - - - - - 1015.0 1017.2 0.0
22/01:00am -2.8 - -3.8 93 0.2 - - - - - 1015.1 1017.3 0.0
22/12:30am -3.0 - -3.8 94 0.1 - - - - - 1014.9 1017.1 0.0
22/12:00am -3.0 - -3.7 95 0.1 - - - - - 1014.9 1017.1 0.0
 
Date/Time
EST
Temp
°C
App
Temp
°C
Dew
Point
°C
Rel
Hum
%
Delta-T
°C
Wind Press
QNH
hPa
Press
MSL
hPa
Rain since
9am
mm
Dir  Spd
km/h
Gust
km/h
Spd
kts
Gust
kts
21/11:30pm -3.1 - -3.6 96 0.0 - - - - - 1015.0 1017.2 0.0
21/11:00pm -2.4 - -2.9 96 0.1 - - - - - 1015.0 1017.2 0.0
21/10:30pm -2.4 - -2.9 96 0.1 - - - - - 1014.9 1017.1 0.0
21/10:00pm -2.4 - -2.9 96 0.1 - - - - - 1014.8 1016.9 0.0
21/09:30pm -2.5 - -3.0 96 0.1 - - - - - 1014.9 1017.1 0.0
21/09:00pm -2.5 - -3.0 96 0.1 - - - - - 1014.5 1016.7 0.0
21/08:30pm -2.6 - -3.1 96 0.1 - - - - - 1014.2 1016.3 0.0
21/08:00pm -2.6 - -3.1 96 0.1 - - - - - 1013.9 1016.1 0.0
21/07:30pm -2.7 - -3.2 96 0.1 - - - - - 1013.7 1015.8 0.0
21/07:00pm -2.9 - -3.4 96 0.0 - - - - - 1013.3 1015.4 0.0
21/06:30pm -2.9 - -3.4 96 0.0 - - - - - 1013.2 1015.3 0.0
21/06:00pm -3.3 - -4.0 95 0.1 - - - - - 1012.9 1014.9 0.0
21/05:30pm -3.4 - -4.1 95 0.1 - - - - - 1012.5 1014.6 0.0
21/05:00pm -3.5 -11.3 -4.2 95 0.1 NNW 28 37 15 20 1011.9 1013.9 0.0
21/04:30pm -3.5 -11.3 -4.2 95 0.1 NNW 28 37 15 20 1011.9 1013.9 0.0
21/04:00pm -3.6 -11.1 -4.3 95 0.1 NNW 26 37 14 20 1011.8 1013.8 0.0
21/03:30pm -3.7 -11.9 -4.4 95 0.1 NNW 30 37 16 20 1011.3 1013.3 0.0
21/03:00pm -3.8 -12.4 -4.6 94 0.1 NNW 32 39 17 21 1011.3 1013.3 0.0
21/02:30pm -3.7 -11.6 -4.5 94 0.1 NNW 28 39 15 21 1011.4 1013.5 0.0
21/02:00pm -3.9 -12.2 -4.7 94 0.1 NNW 30 39 16 21 1011.4 1013.5 0.0
21/01:30pm -4.1 -12.8 -4.9 94 0.1 NNW 32 44 17 24 1011.3 1013.3 0.0
21/01:00pm -4.0 -12.9 -4.8 94 0.1 NNW 33 44 18 24 1011.5 1013.6 0.0

Other Formats:

Comma delimited format used in spreadsheet applications
http://www.bom.gov.au/fwo/IDV60801/IDV60801.94903.axf

JavaScript Object Notation format (JSON) in row-major order
http://www.bom.gov.au/fwo/IDV60801/IDV60801.94903.json